sensor_id;sensor_type;location;lat;lon;timestamp;P1;durP1;ratioP1;P2;durP2;ratioP2
14847;SDS011;7516;43.570;1.448;2022-12-08T00:00:49;27.67;;;19.97;;
14847;SDS011;7516;43.570;1.448;2022-12-08T00:03:16;28.87;;;19.60;;
14847;SDS011;7516;43.570;1.448;2022-12-08T00:05:44;28.93;;;20.37;;
14847;SDS011;7516;43.570;1.448;2022-12-08T00:08:31;32.53;;;19.37;;
14847;SDS011;7516;43.570;1.448;2022-12-08T00:11:17;28.40;;;19.07;;
14847;SDS011;7516;43.570;1.448;2022-12-08T00:13:45;25.17;;;17.60;;
14847;SDS011;7516;43.570;1.448;2022-12-08T00:16:13;24.87;;;17.93;;
14847;SDS011;7516;43.570;1.448;2022-12-08T00:18:40;25.00;;;17.67;;
14847;SDS011;7516;43.570;1.448;2022-12-08T00:21:08;25.17;;;17.90;;
14847;SDS011;7516;43.570;1.448;2022-12-08T00:23:37;24.90;;;17.80;;
14847;SDS011;7516;43.570;1.448;2022-12-08T00:26:05;25.23;;;16.90;;
14847;SDS011;7516;43.570;1.448;2022-12-08T00:28:33;24.50;;;17.17;;
14847;SDS011;7516;43.570;1.448;2022-12-08T00:31:05;23.60;;;16.93;;
14847;SDS011;7516;43.570;1.448;2022-12-08T00:33:33;25.97;;;17.00;;
14847;SDS011;7516;43.570;1.448;2022-12-08T00:36:04;24.13;;;16.90;;
14847;SDS011;7516;43.570;1.448;2022-12-08T00:38:32;24.37;;;16.30;;
14847;SDS011;7516;43.570;1.448;2022-12-08T00:41:01;23.80;;;16.10;;
14847;SDS011;7516;43.570;1.448;2022-12-08T00:43:29;23.20;;;15.83;;
14847;SDS011;7516;43.570;1.448;2022-12-08T00:45:56;21.17;;;15.00;;
14847;SDS011;7516;43.570;1.448;2022-12-08T00:48:24;22.80;;;14.13;;
14847;SDS011;7516;43.570;1.448;2022-12-08T00:50:51;22.60;;;14.13;;
14847;SDS011;7516;43.570;1.448;2022-12-08T00:53:19;19.90;;;14.20;;
14847;SDS011;7516;43.570;1.448;2022-12-08T00:55:46;22.30;;;14.30;;
14847;SDS011;7516;43.570;1.448;2022-12-08T00:58:15;18.03;;;13.13;;
14847;SDS011;7516;43.570;1.448;2022-12-08T01:00:43;18.57;;;13.87;;
14847;SDS011;7516;43.570;1.448;2022-12-08T01:03:10;20.23;;;13.13;;
14847;SDS011;7516;43.570;1.448;2022-12-08T01:05:39;21.23;;;12.63;;
14847;SDS011;7516;43.570;1.448;2022-12-08T01:08:07;17.73;;;12.77;;
14847;SDS011;7516;43.570;1.448;2022-12-08T01:10:34;20.23;;;11.40;;
14847;SDS011;7516;43.570;1.448;2022-12-08T01:13:03;16.33;;;10.93;;
14847;SDS011;7516;43.570;1.448;2022-12-08T01:15:32;18.40;;;11.83;;
14847;SDS011;7516;43.570;1.448;2022-12-08T01:18:00;16.03;;;11.40;;
14847;SDS011;7516;43.570;1.448;2022-12-08T01:20:27;17.43;;;11.00;;
14847;SDS011;7516;43.570;1.448;2022-12-08T01:22:55;15.70;;;10.40;;
14847;SDS011;7516;43.570;1.448;2022-12-08T01:25:23;13.40;;;9.90;;
14847;SDS011;7516;43.570;1.448;2022-12-08T01:27:50;15.20;;;9.63;;
14847;SDS011;7516;43.570;1.448;2022-12-08T01:30:18;12.77;;;8.53;;
14847;SDS011;7516;43.570;1.448;2022-12-08T01:32:47;12.50;;;9.17;;
14847;SDS011;7516;43.570;1.448;2022-12-08T01:35:15;11.63;;;8.13;;
14847;SDS011;7516;43.570;1.448;2022-12-08T01:37:43;11.60;;;7.40;;
14847;SDS011;7516;43.570;1.448;2022-12-08T01:40:10;12.73;;;8.63;;
14847;SDS011;7516;43.570;1.448;2022-12-08T01:42:38;11.30;;;8.37;;
14847;SDS011;7516;43.570;1.448;2022-12-08T01:45:06;13.30;;;8.80;;
14847;SDS011;7516;43.570;1.448;2022-12-08T01:47:41;11.03;;;7.70;;
14847;SDS011;7516;43.570;1.448;2022-12-08T01:50:13;13.77;;;8.57;;
14847;SDS011;7516;43.570;1.448;2022-12-08T01:52:45;11.33;;;7.97;;
14847;SDS011;7516;43.570;1.448;2022-12-08T01:55:16;12.80;;;8.57;;
14847;SDS011;7516;43.570;1.448;2022-12-08T01:57:48;11.40;;;8.07;;
14847;SDS011;7516;43.570;1.448;2022-12-08T02:00:19;14.77;;;9.10;;
14847;SDS011;7516;43.570;1.448;2022-12-08T02:02:51;11.83;;;7.40;;
14847;SDS011;7516;43.570;1.448;2022-12-08T02:05:23;11.70;;;8.33;;
14847;SDS011;7516;43.570;1.448;2022-12-08T02:07:53;9.57;;;6.97;;
14847;SDS011;7516;43.570;1.448;2022-12-08T02:10:23;13.70;;;7.60;;
14847;SDS011;7516;43.570;1.448;2022-12-08T02:12:54;10.83;;;7.37;;
14847;SDS011;7516;43.570;1.448;2022-12-08T02:15:24;10.70;;;7.50;;
14847;SDS011;7516;43.570;1.448;2022-12-08T02:18:05;10.90;;;7.13;;
14847;SDS011;7516;43.570;1.448;2022-12-08T02:20:48;9.87;;;5.87;;
14847;SDS011;7516;43.570;1.448;2022-12-08T02:23:26;8.50;;;5.93;;
14847;SDS011;7516;43.570;1.448;2022-12-08T02:32:22;11.07;;;6.87;;
14847;SDS011;7516;43.570;1.448;2022-12-08T02:35:13;8.93;;;6.57;;
14847;SDS011;7516;43.570;1.448;2022-12-08T02:37:47;8.80;;;6.17;;
14847;SDS011;7516;43.570;1.448;2022-12-08T02:40:21;3.80;;;2.63;;
14847;SDS011;7516;43.570;1.448;2022-12-08T02:42:55;10.87;;;6.13;;
14847;SDS011;7516;43.570;1.448;2022-12-08T02:45:28;8.70;;;6.20;;
14847;SDS011;7516;43.570;1.448;2022-12-08T02:48:00;9.53;;;6.73;;
14847;SDS011;7516;43.570;1.448;2022-12-08T02:50:29;8.27;;;5.47;;
14847;SDS011;7516;43.570;1.448;2022-12-08T02:52:57;8.77;;;5.73;;
14847;SDS011;7516;43.570;1.448;2022-12-08T02:55:26;7.93;;;5.30;;
14847;SDS011;7516;43.570;1.448;2022-12-08T02:58:08;9.47;;;5.80;;
14847;SDS011;7516;43.570;1.448;2022-12-08T03:00:57;8.57;;;5.40;;
14847;SDS011;7516;43.570;1.448;2022-12-08T03:03:37;7.57;;;5.83;;
14847;SDS011;7516;43.570;1.448;2022-12-08T03:06:14;8.43;;;5.50;;
14847;SDS011;7516;43.570;1.448;2022-12-08T03:08:54;8.17;;;5.27;;
14847;SDS011;7516;43.570;1.448;2022-12-08T03:11:26;9.60;;;6.07;;
14847;SDS011;7516;43.570;1.448;2022-12-08T03:13:59;9.23;;;6.03;;
14847;SDS011;7516;43.570;1.448;2022-12-08T03:16:31;7.53;;;5.63;;
14847;SDS011;7516;43.570;1.448;2022-12-08T03:19:05;6.20;;;3.93;;
14847;SDS011;7516;43.570;1.448;2022-12-08T03:21:41;5.73;;;3.80;;
14847;SDS011;7516;43.570;1.448;2022-12-08T03:24:14;8.57;;;5.80;;
14847;SDS011;7516;43.570;1.448;2022-12-08T03:26:44;9.63;;;5.23;;
14847;SDS011;7516;43.570;1.448;2022-12-08T03:29:15;8.30;;;5.53;;
14847;SDS011;7516;43.570;1.448;2022-12-08T03:31:44;7.70;;;4.57;;
14847;SDS011;7516;43.570;1.448;2022-12-08T03:34:18;8.90;;;5.50;;
14847;SDS011;7516;43.570;1.448;2022-12-08T03:36:48;5.43;;;3.83;;
14847;SDS011;7516;43.570;1.448;2022-12-08T03:39:16;7.83;;;5.20;;
14847;SDS011;7516;43.570;1.448;2022-12-08T03:41:44;5.03;;;3.27;;
14847;SDS011;7516;43.570;1.448;2022-12-08T03:44:12;5.07;;;2.27;;
14847;SDS011;7516;43.570;1.448;2022-12-08T03:46:39;9.40;;;5.20;;
14847;SDS011;7516;43.570;1.448;2022-12-08T03:49:07;9.67;;;6.23;;
14847;SDS011;7516;43.570;1.448;2022-12-08T03:51:34;8.33;;;5.60;;
14847;SDS011;7516;43.570;1.448;2022-12-08T03:54:03;6.97;;;4.50;;
14847;SDS011;7516;43.570;1.448;2022-12-08T03:56:32;9.27;;;5.73;;
14847;SDS011;7516;43.570;1.448;2022-12-08T03:59:01;7.07;;;4.30;;
14847;SDS011;7516;43.570;1.448;2022-12-08T04:01:29;10.20;;;7.07;;
14847;SDS011;7516;43.570;1.448;2022-12-08T04:03:57;8.63;;;5.90;;
14847;SDS011;7516;43.570;1.448;2022-12-08T04:06:25;7.63;;;5.90;;
14847;SDS011;7516;43.570;1.448;2022-12-08T04:08:52;8.77;;;5.80;;
14847;SDS011;7516;43.570;1.448;2022-12-08T04:11:21;7.63;;;5.30;;
14847;SDS011;7516;43.570;1.448;2022-12-08T04:13:49;9.30;;;5.97;;
14847;SDS011;7516;43.570;1.448;2022-12-08T04:16:17;5.97;;;3.60;;
14847;SDS011;7516;43.570;1.448;2022-12-08T04:18:46;9.17;;;5.83;;
14847;SDS011;7516;43.570;1.448;2022-12-08T04:21:14;8.47;;;6.20;;
14847;SDS011;7516;43.570;1.448;2022-12-08T04:23:42;9.07;;;5.90;;
14847;SDS011;7516;43.570;1.448;2022-12-08T04:26:10;7.43;;;4.27;;
14847;SDS011;7516;43.570;1.448;2022-12-08T04:28:39;8.63;;;5.43;;
14847;SDS011;7516;43.570;1.448;2022-12-08T04:31:07;9.27;;;5.63;;
14847;SDS011;7516;43.570;1.448;2022-12-08T04:33:35;10.17;;;4.87;;
14847;SDS011;7516;43.570;1.448;2022-12-08T04:36:03;7.47;;;5.47;;
14847;SDS011;7516;43.570;1.448;2022-12-08T04:38:32;8.27;;;6.03;;
14847;SDS011;7516;43.570;1.448;2022-12-08T04:41:00;7.40;;;5.20;;
14847;SDS011;7516;43.570;1.448;2022-12-08T04:43:27;9.60;;;6.00;;
14847;SDS011;7516;43.570;1.448;2022-12-08T04:45:56;12.57;;;6.73;;
14847;SDS011;7516;43.570;1.448;2022-12-08T04:48:24;8.67;;;5.93;;
14847;SDS011;7516;43.570;1.448;2022-12-08T04:50:51;7.10;;;5.23;;
14847;SDS011;7516;43.570;1.448;2022-12-08T04:53:19;7.80;;;5.47;;
14847;SDS011;7516;43.570;1.448;2022-12-08T04:55:47;5.57;;;3.00;;
14847;SDS011;7516;43.570;1.448;2022-12-08T04:58:15;8.33;;;5.57;;
14847;SDS011;7516;43.570;1.448;2022-12-08T05:00:45;7.73;;;5.73;;
14847;SDS011;7516;43.570;1.448;2022-12-08T05:03:14;10.63;;;6.07;;
14847;SDS011;7516;43.570;1.448;2022-12-08T05:05:43;9.40;;;6.13;;
14847;SDS011;7516;43.570;1.448;2022-12-08T05:08:10;8.67;;;5.80;;
14847;SDS011;7516;43.570;1.448;2022-12-08T05:10:38;9.63;;;5.63;;
14847;SDS011;7516;43.570;1.448;2022-12-08T05:13:06;7.27;;;5.27;;
14847;SDS011;7516;43.570;1.448;2022-12-08T05:15:33;7.80;;;5.90;;
14847;SDS011;7516;43.570;1.448;2022-12-08T05:18:00;7.23;;;5.50;;
14847;SDS011;7516;43.570;1.448;2022-12-08T05:20:31;5.83;;;4.60;;
14847;SDS011;7516;43.570;1.448;2022-12-08T05:22:58;5.63;;;3.60;;
14847;SDS011;7516;43.570;1.448;2022-12-08T05:25:26;10.13;;;4.97;;
14847;SDS011;7516;43.570;1.448;2022-12-08T05:27:54;6.53;;;3.93;;
14847;SDS011;7516;43.570;1.448;2022-12-08T05:30:22;8.80;;;5.57;;
14847;SDS011;7516;43.570;1.448;2022-12-08T05:32:49;7.60;;;4.87;;
14847;SDS011;7516;43.570;1.448;2022-12-08T05:35:17;8.80;;;5.73;;
14847;SDS011;7516;43.570;1.448;2022-12-08T05:37:45;8.07;;;4.97;;
14847;SDS011;7516;43.570;1.448;2022-12-08T05:40:13;6.97;;;5.03;;
14847;SDS011;7516;43.570;1.448;2022-12-08T05:42:41;8.17;;;5.63;;
14847;SDS011;7516;43.570;1.448;2022-12-08T05:45:08;8.43;;;5.90;;
14847;SDS011;7516;43.570;1.448;2022-12-08T05:47:36;9.23;;;6.27;;
14847;SDS011;7516;43.570;1.448;2022-12-08T05:50:04;10.13;;;5.73;;
14847;SDS011;7516;43.570;1.448;2022-12-08T05:52:33;7.47;;;4.93;;
14847;SDS011;7516;43.570;1.448;2022-12-08T05:55:02;10.53;;;6.10;;
14847;SDS011;7516;43.570;1.448;2022-12-08T05:57:30;9.73;;;5.17;;
14847;SDS011;7516;43.570;1.448;2022-12-08T06:00:00;8.47;;;4.47;;
14847;SDS011;7516;43.570;1.448;2022-12-08T06:02:28;9.07;;;5.83;;
14847;SDS011;7516;43.570;1.448;2022-12-08T06:04:56;9.27;;;6.37;;
14847;SDS011;7516;43.570;1.448;2022-12-08T06:07:23;7.10;;;4.50;;
14847;SDS011;7516;43.570;1.448;2022-12-08T06:09:51;9.67;;;5.53;;
14847;SDS011;7516;43.570;1.448;2022-12-08T06:12:20;10.40;;;3.93;;
14847;SDS011;7516;43.570;1.448;2022-12-08T06:14:48;8.37;;;4.47;;
14847;SDS011;7516;43.570;1.448;2022-12-08T06:17:15;8.30;;;5.07;;
14847;SDS011;7516;43.570;1.448;2022-12-08T06:19:43;8.60;;;6.00;;
14847;SDS011;7516;43.570;1.448;2022-12-08T06:22:10;8.27;;;5.70;;
14847;SDS011;7516;43.570;1.448;2022-12-08T06:24:38;4.93;;;3.20;;
14847;SDS011;7516;43.570;1.448;2022-12-08T06:27:05;10.47;;;6.10;;
14847;SDS011;7516;43.570;1.448;2022-12-08T06:29:34;11.77;;;7.37;;
14847;SDS011;7516;43.570;1.448;2022-12-08T06:32:02;13.00;;;6.50;;
14847;SDS011;7516;43.570;1.448;2022-12-08T06:34:32;10.87;;;6.57;;
14847;SDS011;7516;43.570;1.448;2022-12-08T06:36:59;10.00;;;6.13;;
14847;SDS011;7516;43.570;1.448;2022-12-08T06:39:27;10.43;;;6.77;;
14847;SDS011;7516;43.570;1.448;2022-12-08T06:41:55;12.27;;;6.23;;
14847;SDS011;7516;43.570;1.448;2022-12-08T06:44:41;12.40;;;6.83;;
14847;SDS011;7516;43.570;1.448;2022-12-08T06:47:08;13.17;;;6.47;;
14847;SDS011;7516;43.570;1.448;2022-12-08T06:49:36;12.83;;;5.93;;
14847;SDS011;7516;43.570;1.448;2022-12-08T06:52:03;10.60;;;6.40;;
14847;SDS011;7516;43.570;1.448;2022-12-08T06:54:31;12.03;;;7.30;;
14847;SDS011;7516;43.570;1.448;2022-12-08T06:56:58;13.83;;;7.07;;
14847;SDS011;7516;43.570;1.448;2022-12-08T06:59:26;14.47;;;8.27;;
14847;SDS011;7516;43.570;1.448;2022-12-08T07:01:55;11.67;;;5.90;;
14847;SDS011;7516;43.570;1.448;2022-12-08T07:04:22;14.23;;;7.77;;
14847;SDS011;7516;43.570;1.448;2022-12-08T07:06:50;13.37;;;6.03;;
14847;SDS011;7516;43.570;1.448;2022-12-08T07:09:17;2.87;;;2.00;;
14847;SDS011;7516;43.570;1.448;2022-12-08T07:11:45;16.37;;;8.20;;
14847;SDS011;7516;43.570;1.448;2022-12-08T07:14:12;5.70;;;2.63;;
14847;SDS011;7516;43.570;1.448;2022-12-08T07:16:40;10.80;;;6.57;;
14847;SDS011;7516;43.570;1.448;2022-12-08T07:19:09;3.70;;;1.97;;
14847;SDS011;7516;43.570;1.448;2022-12-08T07:21:36;13.67;;;7.60;;
14847;SDS011;7516;43.570;1.448;2022-12-08T07:24:04;13.07;;;7.10;;
14847;SDS011;7516;43.570;1.448;2022-12-08T07:26:32;9.30;;;4.93;;
14847;SDS011;7516;43.570;1.448;2022-12-08T07:29:00;3.23;;;2.03;;
14847;SDS011;7516;43.570;1.448;2022-12-08T07:31:27;9.23;;;4.70;;
14847;SDS011;7516;43.570;1.448;2022-12-08T07:33:55;16.53;;;7.33;;
14847;SDS011;7516;43.570;1.448;2022-12-08T07:36:25;6.60;;;3.00;;
14847;SDS011;7516;43.570;1.448;2022-12-08T07:38:52;6.73;;;3.60;;
14847;SDS011;7516;43.570;1.448;2022-12-08T07:41:21;9.23;;;3.07;;
14847;SDS011;7516;43.570;1.448;2022-12-08T07:43:50;16.60;;;7.73;;
14847;SDS011;7516;43.570;1.448;2022-12-08T07:46:19;3.30;;;1.70;;
14847;SDS011;7516;43.570;1.448;2022-12-08T07:48:48;4.50;;;2.70;;
14847;SDS011;7516;43.570;1.448;2022-12-08T07:51:16;13.07;;;7.87;;
14847;SDS011;7516;43.570;1.448;2022-12-08T07:53:46;15.53;;;8.33;;
14847;SDS011;7516;43.570;1.448;2022-12-08T07:56:15;12.03;;;6.37;;
14847;SDS011;7516;43.570;1.448;2022-12-08T07:58:43;9.53;;;3.30;;
14847;SDS011;7516;43.570;1.448;2022-12-08T08:01:21;14.50;;;7.53;;
14847;SDS011;7516;43.570;1.448;2022-12-08T08:03:50;15.90;;;8.63;;
14847;SDS011;7516;43.570;1.448;2022-12-08T08:06:18;12.97;;;7.00;;
14847;SDS011;7516;43.570;1.448;2022-12-08T08:08:47;6.10;;;2.90;;
14847;SDS011;7516;43.570;1.448;2022-12-08T08:11:15;15.07;;;8.40;;
14847;SDS011;7516;43.570;1.448;2022-12-08T08:13:42;11.33;;;6.17;;
14847;SDS011;7516;43.570;1.448;2022-12-08T08:16:10;6.47;;;2.87;;
14847;SDS011;7516;43.570;1.448;2022-12-08T08:18:38;11.30;;;5.90;;
14847;SDS011;7516;43.570;1.448;2022-12-08T08:21:07;7.07;;;3.20;;
14847;SDS011;7516;43.570;1.448;2022-12-08T08:23:35;15.80;;;7.30;;
14847;SDS011;7516;43.570;1.448;2022-12-08T08:26:04;9.80;;;4.00;;
14847;SDS011;7516;43.570;1.448;2022-12-08T08:28:32;9.33;;;5.03;;
14847;SDS011;7516;43.570;1.448;2022-12-08T08:31:00;3.87;;;3.07;;
14847;SDS011;7516;43.570;1.448;2022-12-08T08:33:28;6.93;;;4.00;;
14847;SDS011;7516;43.570;1.448;2022-12-08T08:35:55;16.23;;;8.00;;
14847;SDS011;7516;43.570;1.448;2022-12-08T08:38:23;12.13;;;6.33;;
14847;SDS011;7516;43.570;1.448;2022-12-08T08:40:50;3.90;;;1.90;;
14847;SDS011;7516;43.570;1.448;2022-12-08T08:43:19;11.67;;;6.47;;
14847;SDS011;7516;43.570;1.448;2022-12-08T08:45:56;4.33;;;2.80;;
14847;SDS011;7516;43.570;1.448;2022-12-08T08:48:25;6.90;;;3.77;;
14847;SDS011;7516;43.570;1.448;2022-12-08T08:50:54;5.20;;;2.97;;
14847;SDS011;7516;43.570;1.448;2022-12-08T08:53:22;6.67;;;3.67;;
14847;SDS011;7516;43.570;1.448;2022-12-08T08:55:49;8.43;;;3.60;;
14847;SDS011;7516;43.570;1.448;2022-12-08T08:58:17;5.13;;;3.47;;
14847;SDS011;7516;43.570;1.448;2022-12-08T09:00:46;6.67;;;3.97;;
14847;SDS011;7516;43.570;1.448;2022-12-08T09:03:14;13.50;;;6.17;;
14847;SDS011;7516;43.570;1.448;2022-12-08T09:05:43;10.20;;;4.80;;
14847;SDS011;7516;43.570;1.448;2022-12-08T09:08:10;9.13;;;5.77;;
14847;SDS011;7516;43.570;1.448;2022-12-08T09:10:38;11.90;;;5.40;;
14847;SDS011;7516;43.570;1.448;2022-12-08T09:13:06;11.00;;;5.50;;
14847;SDS011;7516;43.570;1.448;2022-12-08T09:15:35;4.50;;;2.60;;
14847;SDS011;7516;43.570;1.448;2022-12-08T09:18:02;6.43;;;3.73;;
14847;SDS011;7516;43.570;1.448;2022-12-08T09:20:30;4.57;;;2.50;;
14847;SDS011;7516;43.570;1.448;2022-12-08T09:22:58;1.97;;;1.83;;
14847;SDS011;7516;43.570;1.448;2022-12-08T09:25:26;5.43;;;3.00;;
14847;SDS011;7516;43.570;1.448;2022-12-08T09:27:54;6.37;;;3.43;;
14847;SDS011;7516;43.570;1.448;2022-12-08T09:30:21;11.43;;;7.33;;
14847;SDS011;7516;43.570;1.448;2022-12-08T09:32:50;6.80;;;4.10;;
14847;SDS011;7516;43.570;1.448;2022-12-08T09:35:18;7.70;;;5.00;;
14847;SDS011;7516;43.570;1.448;2022-12-08T09:37:46;10.10;;;5.90;;
14847;SDS011;7516;43.570;1.448;2022-12-08T09:40:14;12.20;;;6.53;;
14847;SDS011;7516;43.570;1.448;2022-12-08T09:42:46;7.83;;;3.97;;
14847;SDS011;7516;43.570;1.448;2022-12-08T09:45:17;9.77;;;5.10;;
14847;SDS011;7516;43.570;1.448;2022-12-08T09:47:47;12.23;;;6.47;;
14847;SDS011;7516;43.570;1.448;2022-12-08T09:50:28;5.47;;;3.60;;
14847;SDS011;7516;43.570;1.448;2022-12-08T09:52:59;11.50;;;5.70;;
14847;SDS011;7516;43.570;1.448;2022-12-08T09:55:36;10.10;;;6.20;;
14847;SDS011;7516;43.570;1.448;2022-12-08T09:58:10;4.27;;;2.73;;
14847;SDS011;7516;43.570;1.448;2022-12-08T10:00:45;12.50;;;6.67;;
14847;SDS011;7516;43.570;1.448;2022-12-08T10:03:15;6.53;;;4.33;;
14847;SDS011;7516;43.570;1.448;2022-12-08T10:05:45;12.17;;;7.07;;
14847;SDS011;7516;43.570;1.448;2022-12-08T10:08:19;10.00;;;5.57;;
14847;SDS011;7516;43.570;1.448;2022-12-08T10:10:55;10.63;;;5.80;;
14847;SDS011;7516;43.570;1.448;2022-12-08T10:13:27;8.33;;;5.60;;
14847;SDS011;7516;43.570;1.448;2022-12-08T10:16:03;8.50;;;5.50;;
14847;SDS011;7516;43.570;1.448;2022-12-08T10:18:42;9.13;;;4.90;;
14847;SDS011;7516;43.570;1.448;2022-12-08T10:21:13;7.77;;;4.07;;
14847;SDS011;7516;43.570;1.448;2022-12-08T10:23:45;7.03;;;4.27;;
14847;SDS011;7516;43.570;1.448;2022-12-08T10:26:17;7.03;;;4.60;;
14847;SDS011;7516;43.570;1.448;2022-12-08T10:28:46;6.87;;;4.77;;
14847;SDS011;7516;43.570;1.448;2022-12-08T10:31:15;7.13;;;3.83;;
14847;SDS011;7516;43.570;1.448;2022-12-08T10:33:45;5.87;;;3.70;;
14847;SDS011;7516;43.570;1.448;2022-12-08T10:36:17;6.37;;;4.10;;
14847;SDS011;7516;43.570;1.448;2022-12-08T10:38:45;6.50;;;3.50;;
14847;SDS011;7516;43.570;1.448;2022-12-08T10:41:14;5.03;;;3.97;;
14847;SDS011;7516;43.570;1.448;2022-12-08T10:43:43;5.57;;;3.60;;
14847;SDS011;7516;43.570;1.448;2022-12-08T10:46:14;7.33;;;4.40;;
14847;SDS011;7516;43.570;1.448;2022-12-08T10:48:49;4.90;;;3.03;;
14847;SDS011;7516;43.570;1.448;2022-12-08T10:51:22;5.57;;;4.27;;
14847;SDS011;7516;43.570;1.448;2022-12-08T10:53:53;3.10;;;1.47;;
14847;SDS011;7516;43.570;1.448;2022-12-08T10:56:23;5.43;;;3.33;;
14847;SDS011;7516;43.570;1.448;2022-12-08T10:59:03;4.87;;;3.63;;
14847;SDS011;7516;43.570;1.448;2022-12-08T11:01:37;5.20;;;2.60;;
14847;SDS011;7516;43.570;1.448;2022-12-08T11:04:11;7.50;;;3.67;;
14847;SDS011;7516;43.570;1.448;2022-12-08T11:06:42;4.23;;;2.83;;
14847;SDS011;7516;43.570;1.448;2022-12-08T11:09:21;6.03;;;4.03;;
14847;SDS011;7516;43.570;1.448;2022-12-08T11:12:08;5.50;;;3.73;;
14847;SDS011;7516;43.570;1.448;2022-12-08T11:14:45;5.17;;;3.80;;
14847;SDS011;7516;43.570;1.448;2022-12-08T11:17:16;5.83;;;2.57;;
14847;SDS011;7516;43.570;1.448;2022-12-08T11:19:55;5.60;;;3.13;;
14847;SDS011;7516;43.570;1.448;2022-12-08T11:22:25;3.70;;;2.13;;
14847;SDS011;7516;43.570;1.448;2022-12-08T11:24:58;4.40;;;3.10;;
14847;SDS011;7516;43.570;1.448;2022-12-08T11:27:36;5.90;;;3.10;;
14847;SDS011;7516;43.570;1.448;2022-12-08T11:30:11;4.87;;;3.30;;
14847;SDS011;7516;43.570;1.448;2022-12-08T11:32:41;4.13;;;2.37;;
14847;SDS011;7516;43.570;1.448;2022-12-08T11:35:14;6.00;;;3.63;;
14847;SDS011;7516;43.570;1.448;2022-12-08T11:37:45;5.37;;;3.60;;
14847;SDS011;7516;43.570;1.448;2022-12-08T11:40:14;4.30;;;3.57;;
14847;SDS011;7516;43.570;1.448;2022-12-08T11:42:49;4.30;;;3.23;;
14847;SDS011;7516;43.570;1.448;2022-12-08T11:45:23;4.40;;;3.33;;
14847;SDS011;7516;43.570;1.448;2022-12-08T11:47:57;5.30;;;3.47;;
14847;SDS011;7516;43.570;1.448;2022-12-08T11:50:40;4.87;;;3.27;;
14847;SDS011;7516;43.570;1.448;2022-12-08T11:53:19;4.53;;;2.93;;
14847;SDS011;7516;43.570;1.448;2022-12-08T11:55:54;5.50;;;3.90;;
14847;SDS011;7516;43.570;1.448;2022-12-08T11:58:25;7.93;;;3.47;;
14847;SDS011;7516;43.570;1.448;2022-12-08T12:01:03;5.37;;;3.63;;
14847;SDS011;7516;43.570;1.448;2022-12-08T12:03:33;5.83;;;3.47;;
14847;SDS011;7516;43.570;1.448;2022-12-08T12:06:13;6.10;;;4.20;;
14847;SDS011;7516;43.570;1.448;2022-12-08T12:09:08;3.53;;;2.07;;
14847;SDS011;7516;43.570;1.448;2022-12-08T12:11:43;3.63;;;2.50;;
14847;SDS011;7516;43.570;1.448;2022-12-08T12:14:45;5.10;;;3.80;;
14847;SDS011;7516;43.570;1.448;2022-12-08T12:17:31;3.43;;;2.10;;
14847;SDS011;7516;43.570;1.448;2022-12-08T12:20:08;4.93;;;3.30;;
14847;SDS011;7516;43.570;1.448;2022-12-08T12:22:42;4.73;;;3.20;;
14847;SDS011;7516;43.570;1.448;2022-12-08T12:25:18;4.70;;;3.17;;
14847;SDS011;7516;43.570;1.448;2022-12-08T12:27:48;2.73;;;1.90;;
14847;SDS011;7516;43.570;1.448;2022-12-08T12:30:22;5.53;;;2.63;;
14847;SDS011;7516;43.570;1.448;2022-12-08T12:32:53;4.60;;;2.40;;
14847;SDS011;7516;43.570;1.448;2022-12-08T12:35:28;3.23;;;1.73;;
14847;SDS011;7516;43.570;1.448;2022-12-08T12:38:02;7.37;;;4.03;;
14847;SDS011;7516;43.570;1.448;2022-12-08T12:40:56;2.37;;;1.10;;
14847;SDS011;7516;43.570;1.448;2022-12-08T12:43:29;3.47;;;1.63;;
14847;SDS011;7516;43.570;1.448;2022-12-08T12:55:21;3.70;;;2.20;;
14847;SDS011;7516;43.570;1.448;2022-12-08T12:57:51;3.50;;;2.23;;
14847;SDS011;7516;43.570;1.448;2022-12-08T13:00:21;3.83;;;2.40;;
14847;SDS011;7516;43.570;1.448;2022-12-08T13:02:50;4.03;;;2.63;;
14847;SDS011;7516;43.570;1.448;2022-12-08T13:05:19;4.07;;;2.63;;
14847;SDS011;7516;43.570;1.448;2022-12-08T13:07:53;3.63;;;1.57;;
14847;SDS011;7516;43.570;1.448;2022-12-08T13:10:26;4.60;;;1.47;;
14847;SDS011;7516;43.570;1.448;2022-12-08T13:13:06;5.17;;;3.20;;
14847;SDS011;7516;43.570;1.448;2022-12-08T13:15:47;4.37;;;3.30;;
14847;SDS011;7516;43.570;1.448;2022-12-08T13:18:17;5.07;;;3.13;;
14847;SDS011;7516;43.570;1.448;2022-12-08T13:20:47;6.87;;;3.47;;
14847;SDS011;7516;43.570;1.448;2022-12-08T13:23:26;6.47;;;3.87;;
14847;SDS011;7516;43.570;1.448;2022-12-08T13:26:11;6.77;;;1.47;;
14847;SDS011;7516;43.570;1.448;2022-12-08T13:31:39;1.43;;;1.10;;
14847;SDS011;7516;43.570;1.448;2022-12-08T13:34:11;2.67;;;1.50;;
14847;SDS011;7516;43.570;1.448;2022-12-08T13:36:42;2.53;;;1.73;;
14847;SDS011;7516;43.570;1.448;2022-12-08T13:39:23;4.63;;;2.33;;
14847;SDS011;7516;43.570;1.448;2022-12-08T13:41:59;2.77;;;1.83;;
14847;SDS011;7516;43.570;1.448;2022-12-08T13:44:33;2.10;;;1.43;;
14847;SDS011;7516;43.570;1.448;2022-12-08T13:47:05;5.10;;;3.30;;
14847;SDS011;7516;43.570;1.448;2022-12-08T13:49:36;4.17;;;3.13;;
14847;SDS011;7516;43.570;1.448;2022-12-08T13:52:13;2.13;;;1.43;;
14847;SDS011;7516;43.570;1.448;2022-12-08T13:54:43;1.13;;;1.00;;
14847;SDS011;7516;43.570;1.448;2022-12-08T13:57:19;2.23;;;1.23;;
14847;SDS011;7516;43.570;1.448;2022-12-08T13:59:51;3.70;;;2.30;;
14847;SDS011;7516;43.570;1.448;2022-12-08T14:02:19;5.57;;;3.53;;
14847;SDS011;7516;43.570;1.448;2022-12-08T14:04:53;5.03;;;2.73;;
14847;SDS011;7516;43.570;1.448;2022-12-08T14:07:21;3.57;;;2.33;;
14847;SDS011;7516;43.570;1.448;2022-12-08T14:09:49;1.10;;;1.00;;
14847;SDS011;7516;43.570;1.448;2022-12-08T14:12:20;3.20;;;1.73;;
14847;SDS011;7516;43.570;1.448;2022-12-08T14:14:50;3.93;;;2.70;;
14847;SDS011;7516;43.570;1.448;2022-12-08T14:17:21;6.20;;;3.30;;
14847;SDS011;7516;43.570;1.448;2022-12-08T14:19:53;3.53;;;2.13;;
14847;SDS011;7516;43.570;1.448;2022-12-08T14:22:22;6.53;;;3.07;;
14847;SDS011;7516;43.570;1.448;2022-12-08T14:24:50;6.37;;;3.77;;
14847;SDS011;7516;43.570;1.448;2022-12-08T14:27:21;6.67;;;3.50;;
14847;SDS011;7516;43.570;1.448;2022-12-08T14:29:51;5.55;;;3.63;;
14847;SDS011;7516;43.570;1.448;2022-12-08T14:32:22;5.37;;;3.87;;
14847;SDS011;7516;43.570;1.448;2022-12-08T14:34:53;7.83;;;4.03;;
14847;SDS011;7516;43.570;1.448;2022-12-08T14:37:24;6.67;;;4.17;;
14847;SDS011;7516;43.570;1.448;2022-12-08T14:39:56;6.73;;;4.43;;
14847;SDS011;7516;43.570;1.448;2022-12-08T14:42:27;7.07;;;4.50;;
14847;SDS011;7516;43.570;1.448;2022-12-08T14:44:57;6.87;;;3.90;;
14847;SDS011;7516;43.570;1.448;2022-12-08T14:47:28;8.53;;;4.03;;
14847;SDS011;7516;43.570;1.448;2022-12-08T14:49:56;4.13;;;2.87;;
14847;SDS011;7516;43.570;1.448;2022-12-08T14:52:24;6.93;;;4.20;;
14847;SDS011;7516;43.570;1.448;2022-12-08T14:54:53;2.90;;;1.90;;
14847;SDS011;7516;43.570;1.448;2022-12-08T14:57:21;3.13;;;1.73;;
14847;SDS011;7516;43.570;1.448;2022-12-08T14:59:54;5.60;;;2.87;;
14847;SDS011;7516;43.570;1.448;2022-12-08T15:02:23;5.27;;;3.37;;
14847;SDS011;7516;43.570;1.448;2022-12-08T15:04:57;6.27;;;4.03;;
14847;SDS011;7516;43.570;1.448;2022-12-08T15:07:28;4.83;;;3.53;;
14847;SDS011;7516;43.570;1.448;2022-12-08T15:10:06;6.30;;;4.40;;
14847;SDS011;7516;43.570;1.448;2022-12-08T15:15:43;7.33;;;4.20;;
14847;SDS011;7516;43.570;1.448;2022-12-08T15:18:14;2.87;;;1.80;;
14847;SDS011;7516;43.570;1.448;2022-12-08T15:20:43;7.43;;;3.73;;
14847;SDS011;7516;43.570;1.448;2022-12-08T15:23:18;6.27;;;3.93;;
14847;SDS011;7516;43.570;1.448;2022-12-08T15:25:57;1.70;;;1.17;;
14847;SDS011;7516;43.570;1.448;2022-12-08T15:28:25;2.97;;;1.97;;
14847;SDS011;7516;43.570;1.448;2022-12-08T15:30:57;4.00;;;1.73;;
14847;SDS011;7516;43.570;1.448;2022-12-08T15:33:25;4.90;;;3.00;;
14847;SDS011;7516;43.570;1.448;2022-12-08T15:35:52;2.07;;;1.33;;
14847;SDS011;7516;43.570;1.448;2022-12-08T15:38:21;3.43;;;1.33;;